createdAt,value
2022-10-07T00:00:18.792Z,2.42
2022-10-07T00:02:20.647Z,2.67
2022-10-07T00:04:22.484Z,2.33
2022-10-07T00:06:24.254Z,2.75
2022-10-07T00:08:26.037Z,1.80
2022-10-07T00:10:27.888Z,2.25
2022-10-07T00:12:29.800Z,2.45
2022-10-07T00:14:31.596Z,1.80
2022-10-07T00:16:39.615Z,1.88
2022-10-07T00:18:42.816Z,2.30
2022-10-07T00:20:44.703Z,3.80
2022-10-07T00:22:46.627Z,2.25
2022-10-07T00:24:48.733Z,2.17
2022-10-07T00:26:50.733Z,2.28
2022-10-07T00:28:52.741Z,2.13
2022-10-07T00:30:58.901Z,2.20
2022-10-07T00:33:00.909Z,1.60
2022-10-07T00:35:02.905Z,2.10
2022-10-07T00:37:04.634Z,2.00
2022-10-07T00:39:08.935Z,2.40
2022-10-07T00:41:17.865Z,3.08
2022-10-07T00:43:20.353Z,1.90
2022-10-07T00:45:22.026Z,2.22
2022-10-07T00:47:29.629Z,1.98
2022-10-07T00:49:35.761Z,2.40
2022-10-07T00:51:37.761Z,2.40
2022-10-07T00:53:40.550Z,1.98
2022-10-07T00:55:43.193Z,2.63
2022-10-07T00:57:46.260Z,2.15
2022-10-07T00:59:48.109Z,1.65
2022-10-07T01:01:50.664Z,1.75
2022-10-07T01:03:52.931Z,2.58
2022-10-07T01:05:54.920Z,2.72
2022-10-07T01:07:59.202Z,2.45
2022-10-07T01:10:01.784Z,2.45
2022-10-07T01:12:27.880Z,2.20
2022-10-07T01:14:41.563Z,2.42
2022-10-07T01:17:03.499Z,2.15
2022-10-07T01:19:33.805Z,2.50
2022-10-07T01:21:40.190Z,2.53
2022-10-07T01:24:18.368Z,2.10
2022-10-07T01:26:47.812Z,1.88
2022-10-07T01:28:58.311Z,2.50
2022-10-07T01:31:01.786Z,2.55
2022-10-07T01:33:05.439Z,2.38
2022-10-07T01:35:11.521Z,1.80
2022-10-07T01:37:15.875Z,2.10
2022-10-07T01:39:19.976Z,2.45
2022-10-07T01:41:23.172Z,1.90
2022-10-07T01:43:25.185Z,2.10
2022-10-07T01:45:30.424Z,2.60
2022-10-07T01:47:33.457Z,1.80
2022-10-07T01:49:35.142Z,1.92
2022-10-07T01:51:39.262Z,1.60
2022-10-07T01:53:51.503Z,2.15
2022-10-07T01:56:14.439Z,2.05
2022-10-07T01:58:53.955Z,1.52
2022-10-07T02:01:34.219Z,1.90
2022-10-07T02:03:51.434Z,1.70
2022-10-07T02:06:11.331Z,2.05
2022-10-07T02:08:23.391Z,1.92
2022-10-07T02:11:03.016Z,2.03
2022-10-07T02:13:16.641Z,1.52
2022-10-07T02:15:26.210Z,2.22
2022-10-07T02:17:28.029Z,1.98
2022-10-07T02:19:33.162Z,1.80
2022-10-07T02:21:36.890Z,1.92
2022-10-07T02:23:40.525Z,2.58
2022-10-07T02:25:48.095Z,2.10
2022-10-07T02:27:52.954Z,2.05
2022-10-07T02:29:57.742Z,2.17
2022-10-07T02:32:02.785Z,2.15
2022-10-07T02:34:05.940Z,1.67
2022-10-07T02:36:16.839Z,1.88
2022-10-07T02:38:19.309Z,1.55
2022-10-07T02:40:22.929Z,1.90
2022-10-07T02:42:33.794Z,1.60
2022-10-07T02:44:50.282Z,1.52
2022-10-07T02:47:14.276Z,2.00
2022-10-07T02:49:18.300Z,2.00
2022-10-07T02:51:22.606Z,1.58
2022-10-07T02:53:27.025Z,1.58
2022-10-07T02:55:29.202Z,1.85
2022-10-07T02:57:34.149Z,1.52
2022-10-07T02:59:37.703Z,1.58
2022-10-07T03:01:45.370Z,1.73
2022-10-07T03:03:47.332Z,1.73
2022-10-07T03:05:49.406Z,1.98
2022-10-07T03:07:54.329Z,1.67
2022-10-07T03:09:56.410Z,2.25
2022-10-07T03:11:58.053Z,1.63
2022-10-07T03:13:59.783Z,1.83
2022-10-07T03:16:04.677Z,1.45
2022-10-07T03:18:06.992Z,2.75
2022-10-07T03:20:09.637Z,2.10
2022-10-07T03:22:11.414Z,1.83
2022-10-07T03:24:13.173Z,2.15
2022-10-07T03:26:14.821Z,1.55
2022-10-07T03:28:16.595Z,2.30
2022-10-07T03:30:24.556Z,2.35
2022-10-07T03:32:29.206Z,2.05
2022-10-07T03:34:31.907Z,1.92
2022-10-07T03:36:33.566Z,2.40
2022-10-07T03:38:35.626Z,1.95
2022-10-07T03:40:38.342Z,2.97
2022-10-07T03:42:40.247Z,2.38
2022-10-07T03:44:42.013Z,1.98
2022-10-07T03:46:43.743Z,1.73
2022-10-07T03:48:46.504Z,1.92
2022-10-07T03:50:52.440Z,2.20
2022-10-07T03:52:54.192Z,2.28
2022-10-07T03:54:56.858Z,1.65
2022-10-07T03:56:58.463Z,1.92
2022-10-07T03:59:00.672Z,1.88
2022-10-07T04:01:10.275Z,2.25
2022-10-07T04:03:13.969Z,2.05
2022-10-07T04:05:17.481Z,2.15
2022-10-07T04:07:22.162Z,2.00
2022-10-07T04:09:26.534Z,2.15
2022-10-07T04:11:28.235Z,2.28
2022-10-07T04:13:30.198Z,2.50
2022-10-07T04:15:31.913Z,2.35
2022-10-07T04:17:33.736Z,3.05
2022-10-07T04:19:35.594Z,2.88
2022-10-07T04:21:37.217Z,3.20
2022-10-07T04:23:40.537Z,1.83
2022-10-07T04:25:44.133Z,2.08
2022-10-07T04:27:51.928Z,2.70
2022-10-07T04:29:53.666Z,2.30
2022-10-07T04:31:55.518Z,1.85
2022-10-07T04:33:57.221Z,1.77
2022-10-07T04:36:10.072Z,2.03
2022-10-07T04:38:12.723Z,2.00
2022-10-07T04:40:14.691Z,2.10
2022-10-07T04:42:34.886Z,2.15
2022-10-07T04:44:36.559Z,1.50
2022-10-07T04:46:40.132Z,1.73
2022-10-07T04:48:45.860Z,1.40
2022-10-07T04:50:49.288Z,1.67
2022-10-07T04:52:51.318Z,1.50
2022-10-07T04:54:52.991Z,1.80
2022-10-07T04:56:54.727Z,1.80
2022-10-07T04:58:56.454Z,2.30
2022-10-07T05:00:59.793Z,2.35
2022-10-07T05:03:02.065Z,2.03
2022-10-07T05:05:04.315Z,1.50
2022-10-07T05:07:05.949Z,1.83
2022-10-07T05:09:07.563Z,1.85
2022-10-07T05:11:09.355Z,2.05
2022-10-07T05:13:13.120Z,1.75
2022-10-07T05:15:15.152Z,1.98
2022-10-07T05:17:16.928Z,1.73
2022-10-07T05:19:19.274Z,4.38
2022-10-07T05:21:20.985Z,2.55
2022-10-07T05:23:28.307Z,1.92
2022-10-07T05:25:30.583Z,3.05
2022-10-07T05:27:32.964Z,1.80
2022-10-07T05:29:35.241Z,1.90
2022-10-07T05:31:36.992Z,2.30
2022-10-07T05:33:39.439Z,1.70
2022-10-07T05:35:46.334Z,1.98
2022-10-07T05:37:51.230Z,2.15
2022-10-07T05:39:53.104Z,2.08
2022-10-07T05:41:55.359Z,1.83
2022-10-07T05:43:56.994Z,2.10
2022-10-07T05:46:03.995Z,2.15
2022-10-07T05:48:08.391Z,2.42
2022-10-07T05:50:10.124Z,2.10
2022-10-07T05:52:11.870Z,2.45
2022-10-07T05:54:16.918Z,1.98
2022-10-07T05:56:22.646Z,2.03
2022-10-07T05:58:24.388Z,1.90
2022-10-07T06:00:26.138Z,1.92
2022-10-07T06:02:28.555Z,1.90
2022-10-07T06:04:30.322Z,1.98
2022-10-07T06:06:32.072Z,1.98
2022-10-07T06:08:33.710Z,2.22
2022-10-07T06:10:54.186Z,1.77
2022-10-07T06:13:07.761Z,2.13
2022-10-07T06:15:10.452Z,2.25
2022-10-07T06:17:12.107Z,1.70
2022-10-07T06:19:22.700Z,1.55
2022-10-07T06:21:28.048Z,2.10
2022-10-07T06:23:36.105Z,3.60
2022-10-07T06:25:37.705Z,1.65
2022-10-07T06:27:39.434Z,1.60
2022-10-07T06:29:41.085Z,1.70
2022-10-07T06:31:42.797Z,1.63
2022-10-07T06:33:44.509Z,1.58
2022-10-07T06:35:48.706Z,1.83
2022-10-07T06:37:50.345Z,1.60
2022-10-07T06:39:54.327Z,2.45
2022-10-07T06:41:59.091Z,1.70
2022-10-07T06:44:01.034Z,2.05
2022-10-07T06:46:05.087Z,2.95
2022-10-07T06:48:06.782Z,1.73
2022-10-07T06:50:08.932Z,1.90
2022-10-07T06:52:11.114Z,2.28
2022-10-07T06:54:12.835Z,2.22
2022-10-07T06:56:14.695Z,2.60
2022-10-07T06:58:16.372Z,3.38
2022-10-07T07:00:18.300Z,3.90
2022-10-07T07:02:20.142Z,4.72
2022-10-07T07:04:21.925Z,4.20
2022-10-07T07:06:23.973Z,4.18
2022-10-07T07:08:32.004Z,4.60
2022-10-07T07:10:38.080Z,5.43
2022-10-07T07:12:40.252Z,5.05
2022-10-07T07:14:43.540Z,4.38
2022-10-07T07:16:45.322Z,5.20
2022-10-07T07:18:58.367Z,3.92
2022-10-07T07:21:03.574Z,3.55
2022-10-07T07:23:07.236Z,2.97
2022-10-07T07:25:12.688Z,2.53
2022-10-07T07:27:15.210Z,2.83
2022-10-07T07:29:17.045Z,2.92
2022-10-07T07:31:18.840Z,3.50
2022-10-07T07:33:20.545Z,3.67
2022-10-07T07:35:27.886Z,4.25
2022-10-07T07:37:30.268Z,2.53
2022-10-07T07:39:34.753Z,2.78
2022-10-07T07:41:40.597Z,2.45
2022-10-07T07:43:42.244Z,2.67
2022-10-07T07:45:44.606Z,2.95
2022-10-07T07:47:49.422Z,2.95
2022-10-07T07:49:51.077Z,2.53
2022-10-07T07:51:52.729Z,3.10
2022-10-07T07:53:54.469Z,2.90
2022-10-07T07:55:57.006Z,2.72
2022-10-07T07:57:58.617Z,2.38
2022-10-07T08:00:00.427Z,1.73
2022-10-07T08:02:02.613Z,2.10
2022-10-07T08:04:04.933Z,2.10
2022-10-07T08:06:07.992Z,1.85
2022-10-07T08:08:12.790Z,2.22
2022-10-07T08:10:14.500Z,1.52
2022-10-07T08:12:16.174Z,1.60
2022-10-07T08:14:17.913Z,1.90
2022-10-07T08:16:23.318Z,2.40
2022-10-07T08:18:25.068Z,2.42
2022-10-07T08:20:26.750Z,1.75
2022-10-07T08:22:28.436Z,1.90
2022-10-07T08:24:30.214Z,2.00
2022-10-07T08:26:33.982Z,1.98
2022-10-07T08:28:36.756Z,1.70
2022-10-07T08:30:38.385Z,2.03
2022-10-07T08:32:40.532Z,2.35
2022-10-07T08:34:42.223Z,1.83
2022-10-07T08:36:47.449Z,1.60
2022-10-07T08:38:49.746Z,1.40
2022-10-07T08:40:52.709Z,2.03
2022-10-07T08:42:54.729Z,1.75
2022-10-07T08:44:56.452Z,1.90
2022-10-07T08:47:38.632Z,1.45
2022-10-07T08:50:09.942Z,1.92
2022-10-07T08:52:30.432Z,1.73
2022-10-07T08:54:33.568Z,1.92
2022-10-07T08:56:35.492Z,1.50
2022-10-07T08:59:02.433Z,1.40
2022-10-07T09:01:17.932Z,1.35
2022-10-07T09:03:32.127Z,1.58
2022-10-07T09:05:39.152Z,1.55
2022-10-07T09:07:48.339Z,1.25
2022-10-07T09:09:57.261Z,1.10
2022-10-07T09:12:00.697Z,1.40
2022-10-07T09:14:25.397Z,1.55
2022-10-07T09:16:31.686Z,1.77
2022-10-07T09:18:37.293Z,1.45
2022-10-07T09:20:43.104Z,1.30
2022-10-07T09:22:51.246Z,1.55
2022-10-07T09:25:00.162Z,1.85
2022-10-07T09:27:05.105Z,1.70
2022-10-07T09:29:09.263Z,1.20
2022-10-07T09:31:13.892Z,1.63
2022-10-07T09:33:19.640Z,1.55
2022-10-07T09:35:23.782Z,1.30
2022-10-07T09:37:27.816Z,1.40
2022-10-07T09:39:29.576Z,1.60
2022-10-07T09:41:35.502Z,2.17
2022-10-07T09:44:00.123Z,1.85
2022-10-07T09:46:02.278Z,1.23
2022-10-07T09:48:21.410Z,1.30
2022-10-07T09:50:40.024Z,1.80
2022-10-07T09:52:55.590Z,1.95
2022-10-07T09:55:32.728Z,1.95
2022-10-07T09:57:36.126Z,2.10
2022-10-07T09:59:37.713Z,1.73
2022-10-07T10:01:41.877Z,1.75
2022-10-07T10:03:43.767Z,1.50
2022-10-07T10:05:53.404Z,1.40
2022-10-07T10:08:00.872Z,1.27
2022-10-07T10:10:16.928Z,1.58
2022-10-07T10:12:20.304Z,1.70
2022-10-07T10:14:36.287Z,1.80
2022-10-07T10:16:40.560Z,1.85
2022-10-07T10:18:56.941Z,1.02
2022-10-07T10:21:20.412Z,1.42
2022-10-07T10:23:46.349Z,1.42
2022-10-07T10:26:28.195Z,1.02
2022-10-07T10:28:45.093Z,1.80
2022-10-07T10:30:58.170Z,1.60
2022-10-07T10:33:12.252Z,1.35
2022-10-07T10:35:29.001Z,1.25
2022-10-07T10:37:48.245Z,1.50
2022-10-07T10:40:24.152Z,1.20
2022-10-07T10:42:45.546Z,1.85
2022-10-07T10:45:08.318Z,1.35
2022-10-07T10:47:37.141Z,1.58
2022-10-07T10:49:46.286Z,1.27
2022-10-07T10:52:09.823Z,1.15
2022-10-07T10:54:31.787Z,1.35
2022-10-07T10:56:51.754Z,1.15
2022-10-07T10:58:59.505Z,1.40
2022-10-07T11:01:31.894Z,1.40
2022-10-07T11:03:36.291Z,1.45
2022-10-07T11:05:40.283Z,1.60
2022-10-07T11:07:55.544Z,1.17
2022-10-07T11:10:04.326Z,1.40
2022-10-07T11:12:11.699Z,1.63
2022-10-07T11:14:18.071Z,1.55
2022-10-07T11:16:23.356Z,1.40
2022-10-07T11:18:36.023Z,1.38
2022-10-07T11:20:44.541Z,1.50
2022-10-07T11:22:59.196Z,1.05
2022-10-07T11:25:28.884Z,1.10
2022-10-07T11:27:32.740Z,1.30
2022-10-07T11:29:44.222Z,1.30
2022-10-07T11:31:52.360Z,1.30
2022-10-07T11:34:02.574Z,1.58
2022-10-07T11:36:09.655Z,1.38
2022-10-07T11:38:13.008Z,1.35
2022-10-07T11:40:16.695Z,1.02
2022-10-07T11:42:27.414Z,1.35
2022-10-07T11:44:42.355Z,1.02
2022-10-07T11:46:45.273Z,1.83
2022-10-07T11:49:11.352Z,1.00
2022-10-07T11:51:24.815Z,1.40
2022-10-07T11:53:28.576Z,1.27
2022-10-07T11:55:35.929Z,1.35
2022-10-07T11:57:42.375Z,1.42
2022-10-07T11:59:46.386Z,1.17
2022-10-07T12:01:52.670Z,1.67
2022-10-07T12:04:22.769Z,1.42
2022-10-07T12:06:24.474Z,1.38
2022-10-07T12:08:40.688Z,1.30
2022-10-07T12:10:42.631Z,1.63
2022-10-07T12:12:47.786Z,2.60
2022-10-07T12:15:00.843Z,1.42
2022-10-07T12:17:18.657Z,1.40
2022-10-07T12:19:23.616Z,1.23
2022-10-07T12:21:25.580Z,1.30
2022-10-07T12:23:28.286Z,1.55
2022-10-07T12:25:32.516Z,2.20
2022-10-07T12:27:36.469Z,1.63
2022-10-07T12:29:49.185Z,1.40
2022-10-07T12:31:51.196Z,1.38
2022-10-07T12:33:59.407Z,1.33
2022-10-07T12:36:19.623Z,1.45
2022-10-07T12:38:27.161Z,1.67
2022-10-07T12:40:30.275Z,1.23
2022-10-07T12:42:32.030Z,1.15
2022-10-07T12:44:39.393Z,1.55
2022-10-07T12:46:40.990Z,1.50
2022-10-07T12:48:47.236Z,1.00
2022-10-07T12:50:53.836Z,1.25
2022-10-07T12:53:05.070Z,1.58
2022-10-07T12:55:15.330Z,1.40
2022-10-07T12:57:23.607Z,1.48
2022-10-07T12:59:50.432Z,1.33
2022-10-07T13:02:15.552Z,1.40
2022-10-07T13:04:28.861Z,1.75
2022-10-07T13:06:42.250Z,1.42
2022-10-07T13:09:25.726Z,1.20
2022-10-07T13:12:00.168Z,4.00
2022-10-07T13:14:22.974Z,1.85
2022-10-07T13:17:01.988Z,1.60
2022-10-07T13:19:15.571Z,1.80
2022-10-07T13:21:32.503Z,1.40
2022-10-07T13:23:34.914Z,1.40
2022-10-07T13:25:43.255Z,1.50
2022-10-07T13:28:06.630Z,1.73
2022-10-07T13:30:32.688Z,1.63
2022-10-07T13:32:35.991Z,1.48
2022-10-07T13:34:38.463Z,1.17
2022-10-07T13:36:43.989Z,1.13
2022-10-07T13:38:47.315Z,1.52
2022-10-07T13:41:16.167Z,1.33
2022-10-07T13:43:18.203Z,1.30
2022-10-07T13:45:19.848Z,2.53
2022-10-07T13:47:22.765Z,1.58
2022-10-07T13:49:38.657Z,1.10
2022-10-07T13:51:41.294Z,1.40
2022-10-07T13:53:42.973Z,1.90
2022-10-07T13:55:45.897Z,1.15
2022-10-07T13:57:48.105Z,1.58
2022-10-07T13:59:51.943Z,1.65
2022-10-07T14:01:56.483Z,1.40
2022-10-07T14:04:15.301Z,1.20
2022-10-07T14:06:38.791Z,1.98
2022-10-07T14:08:50.594Z,0.95
2022-10-07T14:11:06.146Z,1.15
2022-10-07T14:13:09.815Z,0.95
2022-10-07T14:15:26.373Z,1.45
2022-10-07T14:17:33.925Z,0.85
2022-10-07T14:19:35.609Z,1.35
2022-10-07T14:21:41.060Z,1.40
2022-10-07T14:23:43.966Z,1.25
2022-10-07T14:25:48.253Z,1.00
2022-10-07T14:27:57.678Z,0.90
2022-10-07T14:29:59.355Z,4.38
2022-10-07T14:32:30.554Z,1.13
2022-10-07T14:35:02.368Z,1.20
2022-10-07T14:37:11.109Z,1.77
2022-10-07T14:39:23.726Z,1.30
2022-10-07T14:41:29.087Z,1.50
2022-10-07T14:43:31.663Z,1.60
2022-10-07T14:45:33.280Z,0.95
2022-10-07T14:47:34.893Z,1.50
2022-10-07T14:49:36.570Z,1.67
2022-10-07T14:51:38.360Z,1.17
2022-10-07T14:53:41.206Z,1.23
2022-10-07T14:55:43.124Z,1.55
2022-10-07T14:57:47.271Z,1.33
2022-10-07T14:59:50.143Z,1.25
2022-10-07T15:01:51.865Z,1.00
2022-10-07T15:03:53.862Z,1.40
2022-10-07T15:05:55.570Z,1.00
2022-10-07T15:07:57.221Z,1.55
2022-10-07T15:09:58.903Z,1.55
2022-10-07T15:12:01.136Z,1.52
2022-10-07T15:14:03.338Z,1.27
2022-10-07T15:16:05.360Z,1.10
2022-10-07T15:18:08.458Z,1.30
2022-10-07T15:20:12.923Z,1.67
2022-10-07T15:22:14.955Z,1.45
2022-10-07T15:24:16.695Z,2.05
2022-10-07T15:26:19.232Z,1.52
2022-10-07T15:28:21.234Z,1.80
2022-10-07T15:30:22.890Z,1.38
2022-10-07T15:32:24.723Z,1.38
2022-10-07T15:34:26.909Z,1.20
2022-10-07T15:36:29.752Z,1.30
2022-10-07T15:38:31.779Z,1.63
2022-10-07T15:40:33.451Z,1.40
2022-10-07T15:42:35.114Z,1.20
2022-10-07T15:44:36.761Z,1.25
2022-10-07T15:46:38.880Z,1.50
2022-10-07T15:48:40.580Z,1.60
2022-10-07T15:50:49.393Z,1.27
2022-10-07T15:52:51.073Z,1.90
2022-10-07T15:54:52.767Z,1.45
2022-10-07T15:56:57.451Z,1.45
2022-10-07T15:59:00.674Z,1.33
2022-10-07T16:01:04.673Z,1.77
2022-10-07T16:03:06.377Z,1.30
2022-10-07T16:05:09.594Z,1.33
2022-10-07T16:07:14.031Z,1.80
2022-10-07T16:09:15.753Z,1.35
2022-10-07T16:11:17.703Z,1.10
2022-10-07T16:13:19.338Z,1.42
2022-10-07T16:15:21.023Z,1.45
2022-10-07T16:17:22.628Z,1.30
2022-10-07T16:19:24.537Z,1.27
2022-10-07T16:21:35.582Z,1.90
2022-10-07T16:23:39.201Z,2.00
2022-10-07T16:25:40.836Z,1.92
2022-10-07T16:28:01.129Z,2.40
2022-10-07T16:30:21.842Z,2.47
2022-10-07T16:32:23.674Z,2.63
2022-10-07T16:34:25.887Z,2.28
2022-10-07T16:36:28.170Z,1.73
2022-10-07T16:38:31.582Z,2.13
2022-10-07T16:40:33.279Z,1.50
2022-10-07T16:42:34.911Z,1.48
2022-10-07T16:44:36.686Z,1.88
2022-10-07T16:46:38.629Z,1.75
2022-10-07T16:48:41.987Z,2.42
2022-10-07T16:50:47.842Z,6.47
2022-10-07T16:52:49.654Z,4.57
2022-10-07T16:54:51.395Z,8.88
2022-10-07T16:56:53.098Z,8.70
2022-10-07T16:58:56.487Z,9.80
2022-10-07T17:01:09.780Z,8.65
2022-10-07T17:03:11.524Z,8.98
2022-10-07T17:05:13.216Z,5.28
2022-10-07T17:07:14.968Z,4.20
2022-10-07T17:09:17.986Z,4.40
2022-10-07T17:11:30.473Z,4.68
2022-10-07T17:13:34.091Z,4.90
2022-10-07T17:15:40.007Z,6.13
2022-10-07T17:17:41.947Z,9.85
2022-10-07T17:19:43.597Z,4.97
2022-10-07T17:21:47.751Z,3.67
2022-10-07T17:23:49.596Z,4.53
2022-10-07T17:25:51.982Z,3.13
2022-10-07T17:27:53.723Z,2.90
2022-10-07T17:29:55.625Z,2.00
2022-10-07T17:31:57.336Z,2.38
2022-10-07T17:33:59.219Z,2.35
2022-10-07T17:36:04.442Z,2.13
2022-10-07T17:38:06.128Z,2.30
2022-10-07T17:40:08.039Z,2.10
2022-10-07T17:42:09.739Z,1.73
2022-10-07T17:44:12.192Z,2.03
2022-10-07T17:46:15.293Z,2.22
2022-10-07T17:48:16.991Z,2.08
2022-10-07T17:50:18.708Z,2.67
2022-10-07T17:52:23.975Z,2.85
2022-10-07T17:54:28.227Z,3.05
2022-10-07T17:56:31.910Z,4.45
2022-10-07T17:58:33.673Z,5.18
2022-10-07T18:00:35.431Z,8.65
2022-10-07T18:02:37.185Z,9.48
2022-10-07T18:04:39.234Z,9.35
2022-10-07T18:06:43.362Z,6.93
2022-10-07T18:08:45.199Z,4.50
2022-10-07T18:10:51.781Z,4.28
2022-10-07T18:13:12.113Z,5.40
2022-10-07T18:15:19.585Z,4.35
2022-10-07T18:17:21.872Z,4.35
2022-10-07T18:19:24.905Z,4.50
2022-10-07T18:21:30.286Z,3.75
2022-10-07T18:23:32.155Z,2.13
2022-10-07T18:25:35.560Z,2.85
2022-10-07T18:27:37.561Z,3.30
2022-10-07T18:29:39.343Z,3.08
2022-10-07T18:31:41.053Z,3.47
2022-10-07T18:33:43.322Z,2.70
2022-10-07T18:35:45.218Z,1.88
2022-10-07T18:37:47.235Z,2.47
2022-10-07T18:39:49.495Z,2.28
2022-10-07T18:41:51.112Z,1.77
2022-10-07T18:43:56.815Z,1.73
2022-10-07T18:46:07.621Z,1.77
2022-10-07T18:48:09.299Z,1.55
2022-10-07T18:50:11.006Z,1.67
2022-10-07T18:52:12.651Z,2.17
2022-10-07T18:54:14.359Z,2.05
2022-10-07T18:56:17.026Z,2.35
2022-10-07T18:58:18.792Z,2.00
2022-10-07T19:00:20.670Z,2.20
2022-10-07T19:02:22.356Z,2.50
2022-10-07T19:04:24.155Z,1.95
2022-10-07T19:06:26.567Z,1.63
2022-10-07T19:08:28.169Z,2.50
2022-10-07T19:10:29.825Z,2.15
2022-10-07T19:13:03.745Z,2.50
2022-10-07T19:15:05.844Z,2.60
2022-10-07T19:17:07.491Z,3.28
2022-10-07T19:19:16.795Z,2.70
2022-10-07T19:21:20.210Z,2.33
2022-10-07T19:23:21.908Z,2.10
2022-10-07T19:25:42.400Z,2.67
2022-10-07T19:27:44.445Z,2.28
2022-10-07T19:29:49.494Z,2.85
2022-10-07T19:31:51.191Z,2.83
2022-10-07T19:33:56.983Z,2.80
2022-10-07T19:35:58.619Z,2.90
2022-10-07T19:38:00.299Z,3.03
2022-10-07T19:40:02.014Z,3.05
2022-10-07T19:42:04.456Z,3.88
2022-10-07T19:44:06.132Z,4.45
2022-10-07T19:46:08.713Z,5.10
2022-10-07T19:48:14.490Z,6.85
2022-10-07T19:50:16.238Z,13.00
2022-10-07T19:52:18.062Z,15.73
2022-10-07T19:54:19.725Z,20.13
2022-10-07T19:56:26.234Z,19.70
2022-10-07T19:58:28.022Z,21.95
2022-10-07T20:00:30.597Z,24.73
2022-10-07T20:02:32.402Z,20.40
2022-10-07T20:04:35.552Z,20.30
2022-10-07T20:06:37.578Z,18.38
2022-10-07T20:08:41.256Z,16.33
2022-10-07T20:10:42.910Z,11.02
2022-10-07T20:12:44.654Z,10.57
2022-10-07T20:14:46.423Z,6.63
2022-10-07T20:16:48.094Z,5.35
2022-10-07T20:18:51.734Z,5.22
2022-10-07T20:21:19.015Z,5.32
2022-10-07T20:23:20.631Z,4.80
2022-10-07T20:25:22.318Z,4.70
2022-10-07T20:27:24.025Z,4.30
2022-10-07T20:29:26.103Z,4.68
2022-10-07T20:31:30.430Z,5.63
2022-10-07T20:33:39.703Z,4.80
2022-10-07T20:35:41.382Z,4.70
2022-10-07T20:37:43.063Z,4.15
2022-10-07T20:40:16.938Z,4.50
2022-10-07T20:42:21.263Z,4.18
2022-10-07T20:44:22.928Z,4.90
2022-10-07T20:46:24.627Z,3.45
2022-10-07T20:48:29.135Z,4.40
2022-10-07T20:50:30.836Z,4.18
2022-10-07T20:52:35.225Z,4.00
2022-10-07T20:54:36.887Z,4.93
2022-10-07T20:56:38.555Z,4.78
2022-10-07T20:58:40.168Z,5.72
2022-10-07T21:00:41.845Z,4.53
2022-10-07T21:02:44.744Z,5.75
2022-10-07T21:04:48.087Z,4.97
2022-10-07T21:06:51.367Z,4.75
2022-10-07T21:08:54.523Z,4.72
2022-10-07T21:11:02.844Z,4.75
2022-10-07T21:13:05.234Z,6.63
2022-10-07T21:15:07.307Z,3.22
2022-10-07T21:17:09.497Z,3.13
2022-10-07T21:19:11.211Z,3.60
2022-10-07T21:21:13.237Z,3.92
2022-10-07T21:23:14.864Z,4.90
2022-10-07T21:25:16.661Z,5.22
2022-10-07T21:27:18.402Z,5.50
2022-10-07T21:29:20.067Z,5.75
2022-10-07T21:31:22.546Z,5.20
2022-10-07T21:33:24.322Z,4.68
2022-10-07T21:35:25.978Z,4.82
2022-10-07T21:37:29.719Z,5.97
2022-10-07T21:39:31.345Z,4.70
2022-10-07T21:41:35.739Z,5.35
2022-10-07T21:43:37.664Z,5.65
2022-10-07T21:45:39.863Z,5.20
2022-10-07T21:47:41.859Z,4.80
2022-10-07T21:49:45.294Z,4.32
2022-10-07T21:51:47.257Z,3.88
2022-10-07T21:53:52.916Z,3.72
2022-10-07T21:55:54.657Z,3.80
2022-10-07T21:57:56.844Z,4.28
2022-10-07T21:59:58.471Z,4.68
2022-10-07T22:02:00.120Z,4.63
2022-10-07T22:04:03.513Z,4.00
2022-10-07T22:06:08.175Z,4.82
2022-10-07T22:08:33.479Z,3.78
2022-10-07T22:10:35.086Z,5.13
2022-10-07T22:12:36.772Z,4.03
2022-10-07T22:14:38.493Z,4.60
2022-10-07T22:16:40.699Z,3.28
2022-10-07T22:18:49.396Z,4.63
2022-10-07T22:20:51.133Z,4.82
2022-10-07T22:22:56.612Z,4.22
2022-10-07T22:25:01.328Z,5.32
2022-10-07T22:27:04.480Z,5.15
2022-10-07T22:29:08.016Z,6.05
2022-10-07T22:31:11.023Z,5.15
2022-10-07T22:33:15.267Z,5.22
2022-10-07T22:35:33.887Z,4.22
2022-10-07T22:37:35.670Z,6.07
2022-10-07T22:39:37.382Z,5.00
2022-10-07T22:41:40.457Z,5.05
2022-10-07T22:43:46.426Z,5.53
2022-10-07T22:45:58.226Z,4.18
2022-10-07T22:47:59.926Z,4.10
2022-10-07T22:50:05.537Z,4.05
2022-10-07T22:52:07.811Z,4.28
2022-10-07T22:54:12.448Z,4.50
2022-10-07T22:56:16.958Z,5.00
2022-10-07T22:58:18.560Z,4.78
2022-10-07T23:00:21.415Z,5.35
2022-10-07T23:02:23.228Z,5.80
2022-10-07T23:04:24.910Z,7.90
2022-10-07T23:06:26.685Z,8.75
2022-10-07T23:08:28.871Z,11.52
2022-10-07T23:10:30.627Z,11.95
2022-10-07T23:12:32.784Z,9.80
2022-10-07T23:14:34.414Z,10.43
2022-10-07T23:16:36.171Z,7.93
2022-10-07T23:18:39.271Z,8.57
2022-10-07T23:20:40.864Z,7.78
2022-10-07T23:22:44.471Z,8.18
2022-10-07T23:24:46.318Z,8.50
2022-10-07T23:26:47.989Z,8.25
2022-10-07T23:28:51.261Z,8.10
2022-10-07T23:30:53.266Z,7.55
2022-10-07T23:32:56.244Z,8.10
2022-10-07T23:34:57.914Z,7.68
2022-10-07T23:36:59.597Z,7.13
2022-10-07T23:39:01.357Z,6.20
2022-10-07T23:41:03.195Z,6.63
2022-10-07T23:43:04.901Z,5.82
2022-10-07T23:45:06.942Z,6.22
2022-10-07T23:47:08.744Z,5.38
2022-10-07T23:49:11.874Z,5.90
2022-10-07T23:51:16.102Z,5.18
2022-10-07T23:53:20.019Z,4.68
2022-10-07T23:55:21.645Z,5.47
2022-10-07T23:57:23.416Z,5.25
2022-10-07T23:59:25.172Z,4.20
